sensor_id;sensor_type;location;lat;lon;timestamp;temperature;humidity
14008;DHT22;61651;45.508;12.232;2023-08-07T00:00:39;21.50;99.90
14008;DHT22;61651;45.508;12.232;2023-08-07T00:03:41;21.40;99.90
14008;DHT22;61651;45.508;12.232;2023-08-07T00:06:43;21.40;99.90
14008;DHT22;61651;45.508;12.232;2023-08-07T00:09:45;21.40;99.90
14008;DHT22;61651;45.508;12.232;2023-08-07T00:12:48;21.40;99.90
14008;DHT22;61651;45.508;12.232;2023-08-07T00:15:50;21.40;99.90
14008;DHT22;61651;45.508;12.232;2023-08-07T00:18:53;21.40;99.90
14008;DHT22;61651;45.508;12.232;2023-08-07T00:21:56;21.30;99.90
14008;DHT22;61651;45.508;12.232;2023-08-07T00:24:58;21.30;99.90
14008;DHT22;61651;45.508;12.232;2023-08-07T00:28:02;21.30;99.90
14008;DHT22;61651;45.508;12.232;2023-08-07T00:31:04;21.30;99.90
14008;DHT22;61651;45.508;12.232;2023-08-07T00:34:06;21.30;99.90
14008;DHT22;61651;45.508;12.232;2023-08-07T00:37:08;21.30;99.90
14008;DHT22;61651;45.508;12.232;2023-08-07T00:40:11;21.20;99.90
14008;DHT22;61651;45.508;12.232;2023-08-07T00:43:14;21.20;99.90
14008;DHT22;61651;45.508;12.232;2023-08-07T00:46:16;21.20;99.90
14008;DHT22;61651;45.508;12.232;2023-08-07T00:49:19;21.10;99.90
14008;DHT22;61651;45.508;12.232;2023-08-07T00:52:21;21.10;99.90
14008;DHT22;61651;45.508;12.232;2023-08-07T00:55:24;21.00;99.90
14008;DHT22;61651;45.508;12.232;2023-08-07T00:58:28;21.00;99.90
14008;DHT22;61651;45.508;12.232;2023-08-07T01:01:30;21.00;99.90
14008;DHT22;61651;45.508;12.232;2023-08-07T01:04:32;21.00;99.90
14008;DHT22;61651;45.508;12.232;2023-08-07T01:07:34;21.00;99.90
14008;DHT22;61651;45.508;12.232;2023-08-07T01:10:46;21.00;99.90
14008;DHT22;61651;45.508;12.232;2023-08-07T01:13:56;21.00;99.90
14008;DHT22;61651;45.508;12.232;2023-08-07T01:17:06;21.00;99.90
14008;DHT22;61651;45.508;12.232;2023-08-07T01:20:09;21.00;99.90
14008;DHT22;61651;45.508;12.232;2023-08-07T01:23:12;21.00;99.90
14008;DHT22;61651;45.508;12.232;2023-08-07T01:26:15;20.90;99.90
14008;DHT22;61651;45.508;12.232;2023-08-07T01:29:24;20.90;99.90
14008;DHT22;61651;45.508;12.232;2023-08-07T01:32:34;20.90;99.90
14008;DHT22;61651;45.508;12.232;2023-08-07T01:35:41;20.90;99.90
14008;DHT22;61651;45.508;12.232;2023-08-07T01:38:46;20.90;99.90
14008;DHT22;61651;45.508;12.232;2023-08-07T01:41:50;20.90;99.90
14008;DHT22;61651;45.508;12.232;2023-08-07T01:44:52;20.90;99.90
14008;DHT22;61651;45.508;12.232;2023-08-07T01:47:55;20.90;99.90
14008;DHT22;61651;45.508;12.232;2023-08-07T01:50:57;20.90;99.90
14008;DHT22;61651;45.508;12.232;2023-08-07T01:54:00;20.80;99.90
14008;DHT22;61651;45.508;12.232;2023-08-07T01:57:02;20.80;99.90
14008;DHT22;61651;45.508;12.232;2023-08-07T02:00:06;20.80;99.90
14008;DHT22;61651;45.508;12.232;2023-08-07T02:03:09;20.70;99.90
14008;DHT22;61651;45.508;12.232;2023-08-07T02:06:11;20.70;99.90
14008;DHT22;61651;45.508;12.232;2023-08-07T02:09:14;20.70;99.90
14008;DHT22;61651;45.508;12.232;2023-08-07T02:12:16;20.70;99.90
14008;DHT22;61651;45.508;12.232;2023-08-07T02:15:18;20.70;99.90
14008;DHT22;61651;45.508;12.232;2023-08-07T02:18:20;20.70;99.90
14008;DHT22;61651;45.508;12.232;2023-08-07T02:21:22;20.60;99.90
14008;DHT22;61651;45.508;12.232;2023-08-07T02:24:25;20.60;99.90
14008;DHT22;61651;45.508;12.232;2023-08-07T02:27:27;20.50;99.90
14008;DHT22;61651;45.508;12.232;2023-08-07T02:30:31;20.60;99.90
14008;DHT22;61651;45.508;12.232;2023-08-07T02:33:33;20.60;99.90
14008;DHT22;61651;45.508;12.232;2023-08-07T02:36:35;20.60;99.90
14008;DHT22;61651;45.508;12.232;2023-08-07T02:39:38;20.50;99.90
14008;DHT22;61651;45.508;12.232;2023-08-07T02:42:40;20.50;99.90
14008;DHT22;61651;45.508;12.232;2023-08-07T02:45:42;20.50;99.90
14008;DHT22;61651;45.508;12.232;2023-08-07T02:48:44;20.50;99.90
14008;DHT22;61651;45.508;12.232;2023-08-07T02:51:46;20.50;99.90
14008;DHT22;61651;45.508;12.232;2023-08-07T02:54:50;20.40;99.90
14008;DHT22;61651;45.508;12.232;2023-08-07T02:57:52;20.40;99.90
14008;DHT22;61651;45.508;12.232;2023-08-07T03:00:54;20.40;99.90
14008;DHT22;61651;45.508;12.232;2023-08-07T03:03:56;20.30;99.90
14008;DHT22;61651;45.508;12.232;2023-08-07T03:06:59;20.30;99.90
14008;DHT22;61651;45.508;12.232;2023-08-07T03:10:03;20.30;99.90
14008;DHT22;61651;45.508;12.232;2023-08-07T03:13:05;20.30;99.90
14008;DHT22;61651;45.508;12.232;2023-08-07T03:16:07;20.30;99.90
14008;DHT22;61651;45.508;12.232;2023-08-07T03:19:09;20.30;99.90
14008;DHT22;61651;45.508;12.232;2023-08-07T03:22:11;20.30;99.90
14008;DHT22;61651;45.508;12.232;2023-08-07T03:25:14;20.20;99.90
14008;DHT22;61651;45.508;12.232;2023-08-07T03:28:16;20.20;99.90
14008;DHT22;61651;45.508;12.232;2023-08-07T03:31:18;20.20;99.90
14008;DHT22;61651;45.508;12.232;2023-08-07T03:34:20;20.10;99.90
14008;DHT22;61651;45.508;12.232;2023-08-07T03:37:22;20.10;99.90
14008;DHT22;61651;45.508;12.232;2023-08-07T03:40:26;20.10;99.90
14008;DHT22;61651;45.508;12.232;2023-08-07T03:43:28;20.00;99.90
14008;DHT22;61651;45.508;12.232;2023-08-07T03:46:30;20.00;99.90
14008;DHT22;61651;45.508;12.232;2023-08-07T03:49:32;20.00;99.90
14008;DHT22;61651;45.508;12.232;2023-08-07T03:52:34;19.90;99.90
14008;DHT22;61651;45.508;12.232;2023-08-07T03:55:37;20.00;99.90
14008;DHT22;61651;45.508;12.232;2023-08-07T03:58:40;19.90;99.90
14008;DHT22;61651;45.508;12.232;2023-08-07T04:01:42;19.90;99.90
14008;DHT22;61651;45.508;12.232;2023-08-07T04:04:44;19.90;99.90
14008;DHT22;61651;45.508;12.232;2023-08-07T04:07:46;19.80;99.90
14008;DHT22;61651;45.508;12.232;2023-08-07T04:10:59;19.80;99.90
14008;DHT22;61651;45.508;12.232;2023-08-07T04:14:01;19.80;99.90
14008;DHT22;61651;45.508;12.232;2023-08-07T04:17:04;19.70;99.90
14008;DHT22;61651;45.508;12.232;2023-08-07T04:20:07;19.70;99.90
14008;DHT22;61651;45.508;12.232;2023-08-07T04:23:10;19.70;99.90
14008;DHT22;61651;45.508;12.232;2023-08-07T04:26:14;19.70;99.90
14008;DHT22;61651;45.508;12.232;2023-08-07T04:29:16;19.80;99.90
14008;DHT22;61651;45.508;12.232;2023-08-07T04:32:18;19.80;99.90
14008;DHT22;61651;45.508;12.232;2023-08-07T04:35:20;19.80;99.90
14008;DHT22;61651;45.508;12.232;2023-08-07T04:38:22;19.80;99.90
14008;DHT22;61651;45.508;12.232;2023-08-07T04:41:25;19.80;99.90
14008;DHT22;61651;45.508;12.232;2023-08-07T04:44:27;19.90;99.90
14008;DHT22;61651;45.508;12.232;2023-08-07T04:47:29;19.90;99.90
14008;DHT22;61651;45.508;12.232;2023-08-07T04:50:31;19.90;99.90
14008;DHT22;61651;45.508;12.232;2023-08-07T04:53:33;19.90;99.90
14008;DHT22;61651;45.508;12.232;2023-08-07T04:56:36;19.90;99.90
14008;DHT22;61651;45.508;12.232;2023-08-07T04:59:39;19.80;99.90
14008;DHT22;61651;45.508;12.232;2023-08-07T05:02:41;19.80;99.90
14008;DHT22;61651;45.508;12.232;2023-08-07T05:05:43;19.80;99.90
14008;DHT22;61651;45.508;12.232;2023-08-07T05:08:45;19.90;99.90
14008;DHT22;61651;45.508;12.232;2023-08-07T05:11:48;20.00;99.90
14008;DHT22;61651;45.508;12.232;2023-08-07T05:14:50;19.80;99.90
14008;DHT22;61651;45.508;12.232;2023-08-07T05:17:52;19.70;99.90
14008;DHT22;61651;45.508;12.232;2023-08-07T05:20:54;19.80;99.90
14008;DHT22;61651;45.508;12.232;2023-08-07T05:23:56;19.90;99.90
14008;DHT22;61651;45.508;12.232;2023-08-07T05:27:00;20.00;99.90
14008;DHT22;61651;45.508;12.232;2023-08-07T05:30:02;20.00;99.90
14008;DHT22;61651;45.508;12.232;2023-08-07T05:33:04;20.10;99.90
14008;DHT22;61651;45.508;12.232;2023-08-07T05:36:06;20.10;99.90
14008;DHT22;61651;45.508;12.232;2023-08-07T05:39:09;20.20;99.90
14008;DHT22;61651;45.508;12.232;2023-08-07T05:42:12;20.30;99.90
14008;DHT22;61651;45.508;12.232;2023-08-07T05:45:14;20.30;99.90
14008;DHT22;61651;45.508;12.232;2023-08-07T05:48:16;20.40;99.90
14008;DHT22;61651;45.508;12.232;2023-08-07T05:51:18;20.60;99.90
14008;DHT22;61651;45.508;12.232;2023-08-07T05:54:21;20.70;99.90
14008;DHT22;61651;45.508;12.232;2023-08-07T05:57:25;20.80;99.90
14008;DHT22;61651;45.508;12.232;2023-08-07T06:00:27;20.80;99.90
14008;DHT22;61651;45.508;12.232;2023-08-07T06:03:29;20.90;99.90
14008;DHT22;61651;45.508;12.232;2023-08-07T06:06:31;20.90;99.90
14008;DHT22;61651;45.508;12.232;2023-08-07T06:09:35;20.90;99.90
14008;DHT22;61651;45.508;12.232;2023-08-07T06:12:39;20.90;99.90
14008;DHT22;61651;45.508;12.232;2023-08-07T06:15:41;20.90;99.90
14008;DHT22;61651;45.508;12.232;2023-08-07T06:18:43;20.90;99.90
14008;DHT22;61651;45.508;12.232;2023-08-07T06:21:45;21.00;99.90
14008;DHT22;61651;45.508;12.232;2023-08-07T06:24:47;21.00;99.90
14008;DHT22;61651;45.508;12.232;2023-08-07T06:27:50;21.00;99.90
14008;DHT22;61651;45.508;12.232;2023-08-07T06:30:53;21.00;99.90
14008;DHT22;61651;45.508;12.232;2023-08-07T06:33:54;20.90;99.90
14008;DHT22;61651;45.508;12.232;2023-08-07T06:36:57;21.00;99.90
14008;DHT22;61651;45.508;12.232;2023-08-07T06:39:59;21.10;99.90
14008;DHT22;61651;45.508;12.232;2023-08-07T06:43:03;21.30;99.90
14008;DHT22;61651;45.508;12.232;2023-08-07T06:46:05;21.50;99.90
14008;DHT22;61651;45.508;12.232;2023-08-07T06:49:07;21.50;99.90
14008;DHT22;61651;45.508;12.232;2023-08-07T06:52:09;21.60;99.90
14008;DHT22;61651;45.508;12.232;2023-08-07T06:55:11;21.80;99.90
14008;DHT22;61651;45.508;12.232;2023-08-07T06:58:14;21.90;99.90
14008;DHT22;61651;45.508;12.232;2023-08-07T07:01:16;22.00;99.90
14008;DHT22;61651;45.508;12.232;2023-08-07T07:04:18;22.00;99.90
14008;DHT22;61651;45.508;12.232;2023-08-07T07:07:20;22.00;99.90
14008;DHT22;61651;45.508;12.232;2023-08-07T07:10:22;22.10;99.90
14008;DHT22;61651;45.508;12.232;2023-08-07T07:13:25;22.10;99.90
14008;DHT22;61651;45.508;12.232;2023-08-07T07:16:27;22.20;99.90
14008;DHT22;61651;45.508;12.232;2023-08-07T07:19:29;22.20;99.90
14008;DHT22;61651;45.508;12.232;2023-08-07T07:22:31;22.30;99.90
14008;DHT22;61651;45.508;12.232;2023-08-07T07:25:34;22.40;99.90
14008;DHT22;61651;45.508;12.232;2023-08-07T07:28:37;22.40;99.90
14008;DHT22;61651;45.508;12.232;2023-08-07T07:31:39;22.40;99.90
14008;DHT22;61651;45.508;12.232;2023-08-07T07:34:41;22.30;99.90
14008;DHT22;61651;45.508;12.232;2023-08-07T07:37:43;22.50;99.90
14008;DHT22;61651;45.508;12.232;2023-08-07T07:40:45;22.50;99.90
14008;DHT22;61651;45.508;12.232;2023-08-07T07:43:48;22.60;99.90
14008;DHT22;61651;45.508;12.232;2023-08-07T07:46:50;22.70;99.90
14008;DHT22;61651;45.508;12.232;2023-08-07T07:50:05;22.80;99.90
14008;DHT22;61651;45.508;12.232;2023-08-07T07:53:07;22.70;99.90
14008;DHT22;61651;45.508;12.232;2023-08-07T07:56:10;22.80;99.90
14008;DHT22;61651;45.508;12.232;2023-08-07T07:59:13;22.60;99.90
14008;DHT22;61651;45.508;12.232;2023-08-07T08:02:15;22.60;99.90
14008;DHT22;61651;45.508;12.232;2023-08-07T08:05:17;22.70;99.90
14008;DHT22;61651;45.508;12.232;2023-08-07T08:08:20;22.40;99.90
14008;DHT22;61651;45.508;12.232;2023-08-07T08:11:22;22.30;99.90
14008;DHT22;61651;45.508;12.232;2023-08-07T08:14:25;22.60;99.90
14008;DHT22;61651;45.508;12.232;2023-08-07T08:17:27;22.80;99.90
14008;DHT22;61651;45.508;12.232;2023-08-07T08:20:30;22.70;99.90
14008;DHT22;61651;45.508;12.232;2023-08-07T08:23:33;22.90;99.90
14008;DHT22;61651;45.508;12.232;2023-08-07T08:26:35;23.00;99.90
14008;DHT22;61651;45.508;12.232;2023-08-07T08:29:38;23.10;99.90
14008;DHT22;61651;45.508;12.232;2023-08-07T08:32:41;23.00;99.90
14008;DHT22;61651;45.508;12.232;2023-08-07T08:35:43;23.20;99.90
14008;DHT22;61651;45.508;12.232;2023-08-07T08:38:45;23.50;99.90
14008;DHT22;61651;45.508;12.232;2023-08-07T08:41:49;23.40;99.90
14008;DHT22;61651;45.508;12.232;2023-08-07T08:44:55;23.20;99.90
14008;DHT22;61651;45.508;12.232;2023-08-07T08:48:01;23.00;99.90
14008;DHT22;61651;45.508;12.232;2023-08-07T08:51:04;23.40;99.90
14008;DHT22;61651;45.508;12.232;2023-08-07T08:54:07;23.30;99.90
14008;DHT22;61651;45.508;12.232;2023-08-07T08:57:09;23.20;99.90
14008;DHT22;61651;45.508;12.232;2023-08-07T09:00:15;23.40;99.90
14008;DHT22;61651;45.508;12.232;2023-08-07T09:03:21;23.60;99.90
14008;DHT22;61651;45.508;12.232;2023-08-07T09:06:23;23.80;99.90
14008;DHT22;61651;45.508;12.232;2023-08-07T09:09:26;23.90;99.90
14008;DHT22;61651;45.508;12.232;2023-08-07T09:12:31;24.00;99.90
14008;DHT22;61651;45.508;12.232;2023-08-07T09:15:36;23.90;99.90
14008;DHT22;61651;45.508;12.232;2023-08-07T09:18:40;24.20;99.90
14008;DHT22;61651;45.508;12.232;2023-08-07T09:21:42;24.30;99.90
14008;DHT22;61651;45.508;12.232;2023-08-07T09:24:44;24.20;99.90
14008;DHT22;61651;45.508;12.232;2023-08-07T09:27:47;24.40;99.90
14008;DHT22;61651;45.508;12.232;2023-08-07T09:30:52;24.60;99.90
14008;DHT22;61651;45.508;12.232;2023-08-07T09:33:54;24.70;99.90
14008;DHT22;61651;45.508;12.232;2023-08-07T09:36:57;24.90;99.90
14008;DHT22;61651;45.508;12.232;2023-08-07T09:40:00;25.20;99.90
14008;DHT22;61651;45.508;12.232;2023-08-07T09:43:03;25.10;99.90
14008;DHT22;61651;45.508;12.232;2023-08-07T09:46:07;25.30;99.90
14008;DHT22;61651;45.508;12.232;2023-08-07T09:49:09;25.40;99.90
14008;DHT22;61651;45.508;12.232;2023-08-07T09:52:13;25.30;99.20
14008;DHT22;61651;45.508;12.232;2023-08-07T09:55:16;25.20;98.20
14008;DHT22;61651;45.508;12.232;2023-08-07T09:58:18;25.20;97.40
14008;DHT22;61651;45.508;12.232;2023-08-07T10:01:21;25.30;97.80
14008;DHT22;61651;45.508;12.232;2023-08-07T10:04:23;25.20;98.00
14008;DHT22;61651;45.508;12.232;2023-08-07T10:07:26;25.20;95.60
14008;DHT22;61651;45.508;12.232;2023-08-07T10:10:28;25.30;96.20
14008;DHT22;61651;45.508;12.232;2023-08-07T10:13:31;25.60;95.90
14008;DHT22;61651;45.508;12.232;2023-08-07T10:16:34;25.90;96.90
14008;DHT22;61651;45.508;12.232;2023-08-07T10:19:39;26.00;95.40
14008;DHT22;61651;45.508;12.232;2023-08-07T10:22:42;26.20;96.50
14008;DHT22;61651;45.508;12.232;2023-08-07T10:25:46;26.50;95.90
14008;DHT22;61651;45.508;12.232;2023-08-07T10:28:51;26.50;93.70
14008;DHT22;61651;45.508;12.232;2023-08-07T10:31:57;26.70;94.00
14008;DHT22;61651;45.508;12.232;2023-08-07T10:35:02;26.80;93.80
14008;DHT22;61651;45.508;12.232;2023-08-07T10:38:06;26.70;94.60
14008;DHT22;61651;45.508;12.232;2023-08-07T10:41:10;26.80;92.70
14008;DHT22;61651;45.508;12.232;2023-08-07T10:44:17;26.80;93.50
14008;DHT22;61651;45.508;12.232;2023-08-07T10:47:32;26.60;93.00
14008;DHT22;61651;45.508;12.232;2023-08-07T10:50:35;26.50;92.50
14008;DHT22;61651;45.508;12.232;2023-08-07T10:53:40;26.80;90.90
14008;DHT22;61651;45.508;12.232;2023-08-07T10:56:52;26.70;92.00
14008;DHT22;61651;45.508;12.232;2023-08-07T11:00:03;26.70;91.20
14008;DHT22;61651;45.508;12.232;2023-08-07T11:03:10;26.90;91.40
14008;DHT22;61651;45.508;12.232;2023-08-07T11:06:11;27.40;91.00
14008;DHT22;61651;45.508;12.232;2023-08-07T11:09:13;27.80;93.30
14008;DHT22;61651;45.508;12.232;2023-08-07T11:12:16;28.00;91.30
14008;DHT22;61651;45.508;12.232;2023-08-07T11:15:18;27.80;90.70
14008;DHT22;61651;45.508;12.232;2023-08-07T11:18:22;27.80;89.90
14008;DHT22;61651;45.508;12.232;2023-08-07T11:21:25;27.80;90.20
14008;DHT22;61651;45.508;12.232;2023-08-07T11:24:27;28.00;88.30
14008;DHT22;61651;45.508;12.232;2023-08-07T11:27:30;28.40;87.10
14008;DHT22;61651;45.508;12.232;2023-08-07T11:30:32;28.20;87.30
14008;DHT22;61651;45.508;12.232;2023-08-07T11:33:37;28.30;88.10
14008;DHT22;61651;45.508;12.232;2023-08-07T11:36:42;28.60;88.10
14008;DHT22;61651;45.508;12.232;2023-08-07T11:39:45;28.60;84.50
14008;DHT22;61651;45.508;12.232;2023-08-07T11:42:46;28.70;85.40
14008;DHT22;61651;45.508;12.232;2023-08-07T11:45:50;28.90;90.50
14008;DHT22;61651;45.508;12.232;2023-08-07T11:48:53;29.10;84.00
14008;DHT22;61651;45.508;12.232;2023-08-07T11:51:55;29.30;82.60
14008;DHT22;61651;45.508;12.232;2023-08-07T11:54:58;29.50;89.80
14008;DHT22;61651;45.508;12.232;2023-08-07T11:58:02;29.80;89.10
14008;DHT22;61651;45.508;12.232;2023-08-07T12:01:05;29.80;83.60
14008;DHT22;61651;45.508;12.232;2023-08-07T12:04:12;29.50;81.60
14008;DHT22;61651;45.508;12.232;2023-08-07T12:07:17;29.30;78.20
14008;DHT22;61651;45.508;12.232;2023-08-07T12:10:23;28.80;79.00
14008;DHT22;61651;45.508;12.232;2023-08-07T12:13:26;29.00;80.80
14008;DHT22;61651;45.508;12.232;2023-08-07T12:16:32;28.80;74.30
14008;DHT22;61651;45.508;12.232;2023-08-07T12:19:39;29.10;74.90
14008;DHT22;61651;45.508;12.232;2023-08-07T12:22:43;29.50;74.00
14008;DHT22;61651;45.508;12.232;2023-08-07T12:25:45;29.80;74.10
14008;DHT22;61651;45.508;12.232;2023-08-07T12:28:47;30.00;75.00
14008;DHT22;61651;45.508;12.232;2023-08-07T12:31:50;30.20;72.50
14008;DHT22;61651;45.508;12.232;2023-08-07T12:34:53;30.40;72.60
14008;DHT22;61651;45.508;12.232;2023-08-07T12:37:55;29.40;72.80
14008;DHT22;61651;45.508;12.232;2023-08-07T12:40:57;28.90;75.60
14008;DHT22;61651;45.508;12.232;2023-08-07T12:44:00;28.90;76.00
14008;DHT22;61651;45.508;12.232;2023-08-07T12:47:02;28.80;70.00
14008;DHT22;61651;45.508;12.232;2023-08-07T12:50:05;29.10;73.00
14008;DHT22;61651;45.508;12.232;2023-08-07T12:53:08;28.90;70.30
14008;DHT22;61651;45.508;12.232;2023-08-07T12:56:10;28.40;68.60
14008;DHT22;61651;45.508;12.232;2023-08-07T12:59:12;28.30;66.80
14008;DHT22;61651;45.508;12.232;2023-08-07T13:02:14;28.30;68.10
14008;DHT22;61651;45.508;12.232;2023-08-07T13:05:19;28.90;70.70
14008;DHT22;61651;45.508;12.232;2023-08-07T13:08:21;28.40;66.40
14008;DHT22;61651;45.508;12.232;2023-08-07T13:11:23;28.40;66.70
14008;DHT22;61651;45.508;12.232;2023-08-07T13:14:25;28.50;68.00
14008;DHT22;61651;45.508;12.232;2023-08-07T13:17:27;28.90;69.30
14008;DHT22;61651;45.508;12.232;2023-08-07T13:20:31;29.10;69.20
14008;DHT22;61651;45.508;12.232;2023-08-07T13:23:34;29.10;68.40
14008;DHT22;61651;45.508;12.232;2023-08-07T13:26:36;29.50;71.70
14008;DHT22;61651;45.508;12.232;2023-08-07T13:29:39;29.60;70.50
14008;DHT22;61651;45.508;12.232;2023-08-07T13:32:41;29.70;72.30
14008;DHT22;61651;45.508;12.232;2023-08-07T13:35:44;30.40;69.30
14008;DHT22;61651;45.508;12.232;2023-08-07T13:38:46;30.50;68.60
14008;DHT22;61651;45.508;12.232;2023-08-07T13:41:48;29.60;66.50
14008;DHT22;61651;45.508;12.232;2023-08-07T13:44:50;29.80;64.80
14008;DHT22;61651;45.508;12.232;2023-08-07T13:47:52;29.80;68.30
14008;DHT22;61651;45.508;12.232;2023-08-07T13:50:56;30.00;67.40
14008;DHT22;61651;45.508;12.232;2023-08-07T13:53:58;31.20;64.90
14008;DHT22;61651;45.508;12.232;2023-08-07T13:57:00;31.60;62.90
14008;DHT22;61651;45.508;12.232;2023-08-07T14:00:02;32.60;67.10
14008;DHT22;61651;45.508;12.232;2023-08-07T14:03:04;33.70;70.90
14008;DHT22;61651;45.508;12.232;2023-08-07T14:06:08;34.50;64.40
14008;DHT22;61651;45.508;12.232;2023-08-07T14:09:10;35.00;63.30
14008;DHT22;61651;45.508;12.232;2023-08-07T14:12:14;35.20;61.50
14008;DHT22;61651;45.508;12.232;2023-08-07T14:15:16;33.40;62.70
14008;DHT22;61651;45.508;12.232;2023-08-07T14:18:18;33.80;61.30
14008;DHT22;61651;45.508;12.232;2023-08-07T14:21:21;33.10;59.20
14008;DHT22;61651;45.508;12.232;2023-08-07T14:24:24;32.80;60.00
14008;DHT22;61651;45.508;12.232;2023-08-07T15:11:47;35.10;54.90
14008;DHT22;61651;45.508;12.232;2023-08-07T15:14:50;35.00;56.00
14008;DHT22;61651;45.508;12.232;2023-08-07T15:17:52;35.00;56.30
14008;DHT22;61651;45.508;12.232;2023-08-07T15:20:54;34.70;55.50
14008;DHT22;61651;45.508;12.232;2023-08-07T15:23:57;34.10;56.70
14008;DHT22;61651;45.508;12.232;2023-08-07T15:27:01;33.40;55.80
14008;DHT22;61651;45.508;12.232;2023-08-07T15:30:03;32.80;54.20
14008;DHT22;61651;45.508;12.232;2023-08-07T15:33:06;32.10;53.60
14008;DHT22;61651;45.508;12.232;2023-08-07T15:36:08;31.90;55.00
14008;DHT22;61651;45.508;12.232;2023-08-07T15:39:10;31.80;56.70
14008;DHT22;61651;45.508;12.232;2023-08-07T15:42:14;31.90;60.20
14008;DHT22;61651;45.508;12.232;2023-08-07T15:45:17;32.30;69.50
14008;DHT22;61651;45.508;12.232;2023-08-07T15:48:19;32.50;72.50
14008;DHT22;61651;45.508;12.232;2023-08-07T15:51:21;32.60;70.90
14008;DHT22;61651;45.508;12.232;2023-08-07T15:54:23;32.60;65.30
14008;DHT22;61651;45.508;12.232;2023-08-07T15:57:26;32.60;65.90
14008;DHT22;61651;45.508;12.232;2023-08-07T16:00:28;32.50;62.60
14008;DHT22;61651;45.508;12.232;2023-08-07T16:03:34;32.40;63.60
14008;DHT22;61651;45.508;12.232;2023-08-07T16:06:37;32.30;62.10
14008;DHT22;61651;45.508;12.232;2023-08-07T16:09:40;32.20;64.00
14008;DHT22;61651;45.508;12.232;2023-08-07T16:12:43;32.10;62.60
14008;DHT22;61651;45.508;12.232;2023-08-07T16:15:45;32.00;63.30
14008;DHT22;61651;45.508;12.232;2023-08-07T16:18:48;31.90;64.00
14008;DHT22;61651;45.508;12.232;2023-08-07T16:21:50;31.90;64.20
14008;DHT22;61651;45.508;12.232;2023-08-07T16:24:52;31.80;64.20
14008;DHT22;61651;45.508;12.232;2023-08-07T16:27:55;31.40;64.10
14008;DHT22;61651;45.508;12.232;2023-08-07T16:30:57;31.30;65.50
14008;DHT22;61651;45.508;12.232;2023-08-07T16:33:59;31.20;64.30
14008;DHT22;61651;45.508;12.232;2023-08-07T16:37:01;31.10;65.20
14008;DHT22;61651;45.508;12.232;2023-08-07T16:40:04;30.90;66.30
14008;DHT22;61651;45.508;12.232;2023-08-07T16:43:08;30.80;67.20
14008;DHT22;61651;45.508;12.232;2023-08-07T16:46:10;30.70;67.20
14008;DHT22;61651;45.508;12.232;2023-08-07T16:49:12;30.70;63.90
14008;DHT22;61651;45.508;12.232;2023-08-07T16:52:14;30.50;68.80
14008;DHT22;61651;45.508;12.232;2023-08-07T16:55:16;30.40;70.30
14008;DHT22;61651;45.508;12.232;2023-08-07T16:58:20;30.30;71.40
14008;DHT22;61651;45.508;12.232;2023-08-07T17:01:22;30.10;70.40
14008;DHT22;61651;45.508;12.232;2023-08-07T17:04:24;30.00;69.90
14008;DHT22;61651;45.508;12.232;2023-08-07T17:07:30;29.80;69.40
14008;DHT22;61651;45.508;12.232;2023-08-07T17:10:32;29.70;69.40
14008;DHT22;61651;45.508;12.232;2023-08-07T17:13:35;29.70;68.70
14008;DHT22;61651;45.508;12.232;2023-08-07T17:16:37;29.60;69.10
14008;DHT22;61651;45.508;12.232;2023-08-07T17:19:39;29.50;69.40
14008;DHT22;61651;45.508;12.232;2023-08-07T17:22:41;29.40;70.00
14008;DHT22;61651;45.508;12.232;2023-08-07T17:25:43;29.30;69.40
14008;DHT22;61651;45.508;12.232;2023-08-07T17:28:47;29.20;69.00
14008;DHT22;61651;45.508;12.232;2023-08-07T17:31:49;29.20;70.50
14008;DHT22;61651;45.508;12.232;2023-08-07T17:34:52;29.10;70.40
14008;DHT22;61651;45.508;12.232;2023-08-07T17:37:55;29.00;70.50
14008;DHT22;61651;45.508;12.232;2023-08-07T17:40:57;29.00;71.50
14008;DHT22;61651;45.508;12.232;2023-08-07T17:44:02;28.90;74.80
14008;DHT22;61651;45.508;12.232;2023-08-07T17:47:05;28.80;76.70
14008;DHT22;61651;45.508;12.232;2023-08-07T17:50:08;28.70;76.20
14008;DHT22;61651;45.508;12.232;2023-08-07T17:53:10;28.60;76.10
14008;DHT22;61651;45.508;12.232;2023-08-07T17:56:12;28.50;75.70
14008;DHT22;61651;45.508;12.232;2023-08-07T17:59:16;28.40;76.40
14008;DHT22;61651;45.508;12.232;2023-08-07T18:02:18;28.30;76.30
14008;DHT22;61651;45.508;12.232;2023-08-07T18:05:20;28.30;75.60
14008;DHT22;61651;45.508;12.232;2023-08-07T18:08:22;28.20;75.00
14008;DHT22;61651;45.508;12.232;2023-08-07T18:11:24;28.10;75.30
14008;DHT22;61651;45.508;12.232;2023-08-07T18:14:27;28.00;74.70
14008;DHT22;61651;45.508;12.232;2023-08-07T18:17:29;28.00;74.60
14008;DHT22;61651;45.508;12.232;2023-08-07T18:20:32;27.90;73.70
14008;DHT22;61651;45.508;12.232;2023-08-07T18:23:34;27.90;73.20
14008;DHT22;61651;45.508;12.232;2023-08-07T18:26:36;27.80;73.20
14008;DHT22;61651;45.508;12.232;2023-08-07T18:29:41;27.60;73.70
14008;DHT22;61651;45.508;12.232;2023-08-07T18:32:43;27.50;74.20
14008;DHT22;61651;45.508;12.232;2023-08-07T18:35:45;27.40;74.60
14008;DHT22;61651;45.508;12.232;2023-08-07T18:38:47;27.30;74.80
14008;DHT22;61651;45.508;12.232;2023-08-07T18:41:50;27.30;75.60
14008;DHT22;61651;45.508;12.232;2023-08-07T18:44:53;27.20;76.70
14008;DHT22;61651;45.508;12.232;2023-08-07T18:47:55;27.10;79.00
14008;DHT22;61651;45.508;12.232;2023-08-07T18:50:57;27.00;79.30
14008;DHT22;61651;45.508;12.232;2023-08-07T18:54:01;26.90;79.90
14008;DHT22;61651;45.508;12.232;2023-08-07T18:57:04;26.80;79.70
14008;DHT22;61651;45.508;12.232;2023-08-07T19:00:09;26.70;82.10
14008;DHT22;61651;45.508;12.232;2023-08-07T19:03:11;26.60;82.40
14008;DHT22;61651;45.508;12.232;2023-08-07T19:06:13;26.60;82.20
14008;DHT22;61651;45.508;12.232;2023-08-07T19:09:15;26.50;82.10
14008;DHT22;61651;45.508;12.232;2023-08-07T19:12:17;26.50;82.20
14008;DHT22;61651;45.508;12.232;2023-08-07T19:15:21;26.40;81.90
14008;DHT22;61651;45.508;12.232;2023-08-07T19:18:24;26.40;82.50
14008;DHT22;61651;45.508;12.232;2023-08-07T19:21:27;26.40;83.60
14008;DHT22;61651;45.508;12.232;2023-08-07T19:24:29;26.30;84.20
14008;DHT22;61651;45.508;12.232;2023-08-07T19:27:31;26.30;86.80
14008;DHT22;61651;45.508;12.232;2023-08-07T19:30:35;26.20;88.30
14008;DHT22;61651;45.508;12.232;2023-08-07T19:33:37;26.10;89.00
14008;DHT22;61651;45.508;12.232;2023-08-07T19:36:39;26.10;90.10
14008;DHT22;61651;45.508;12.232;2023-08-07T19:39:41;26.10;90.50